Hovedside
METAR-TAF:

METAR-TAF

Lufthavner :

Tartu lufthavn

Tartu, Estland

breddegrad: 58-18N, lengdegrad: 026-44E, høyde over havet: 59 m

Gjeldene værobservasjon

Denne rapporten ble laget for 39 minutter siden, klokken 16:20 UTC
Vind 5 kt fra Nord, skiftende mellom Nordvest og Øst-nordøst
Temperatur 23°C
Luftfuktighet 47%
Trykk 1015 hPa
Sikt 10 km eller mer

METAR: EETU 241620Z AUTO 36005KT 320V060 9999 FEW049/// SCT110/// 23/11 Q1015

Tid: 19:59 (16:59 UTC)

Varsel

Denne rapporten ble laget for 8 timer og 59 minutter siden, klokken 08:00 UTC
Varsel gyldig fra 24. klokken 09 UTC til 24. klokken 15 UTC
Vind 6 kt fra Nord
Sikt 10 km eller mer
Spredte skyer i en høyde av 3000 ft

TAF: EETU 240800Z 2409/2415 01006KT 9999 SCT030

Værobservasjoner og værvarsel for over 4000 flyplasser (METAR- og TAF-rapporter).

Tilgjengelige stasjoner er representert av de røde og gule prikkene på kartet.

Hold musepekeren over prikken for å se navnet på stasjonen.

Klikk så for å se værobservasjoner og -varsler.

For å forandre kartet kan du klikke på den grønne knappen med svart kryss for å zoome inn, på den grønne knappen med strek for å zoome ut, eller på de grønne pilene for å se tilstøtende kart.


METAR-TAF: